createdAt,value
2019-05-20T00:01:18.658Z,91.00
2019-05-20T00:03:48.670Z,91.10
2019-05-20T00:06:18.670Z,91.20
2019-05-20T00:08:48.689Z,91.30
2019-05-20T00:11:18.679Z,91.50
2019-05-20T00:13:48.716Z,91.60
2019-05-20T00:16:18.744Z,91.60
2019-05-20T00:18:48.764Z,91.80
2019-05-20T00:21:18.777Z,91.90
2019-05-20T00:23:48.864Z,92.00
2019-05-20T00:26:18.851Z,92.10
2019-05-20T00:28:48.971Z,92.30
2019-05-20T00:31:19.528Z,92.40
2019-05-20T00:33:49.612Z,92.50
2019-05-20T00:36:19.680Z,92.50
2019-05-20T00:39:08.817Z,92.50
2019-05-20T00:41:38.964Z,92.60
2019-05-20T00:44:09.014Z,92.60
2019-05-20T00:46:39.082Z,92.30
2019-05-20T00:49:09.153Z,92.10
2019-05-20T00:51:39.507Z,92.00
2019-05-20T00:54:09.750Z,91.80
2019-05-20T00:56:39.772Z,91.90
2019-05-20T00:59:09.819Z,92.00
2019-05-20T01:01:39.859Z,92.30
2019-05-20T01:04:09.916Z,92.50
2019-05-20T01:06:39.960Z,92.70
2019-05-20T01:09:11.330Z,92.80
2019-05-20T01:11:41.389Z,93.10
2019-05-20T01:14:11.665Z,93.30
2019-05-20T01:16:41.732Z,93.40
2019-05-20T01:19:11.783Z,93.60
2019-05-20T01:21:41.794Z,93.70
2019-05-20T01:24:11.848Z,93.90
2019-05-20T01:26:42.951Z,93.90
2019-05-20T01:29:13.101Z,94.10
2019-05-20T01:31:43.128Z,94.20
2019-05-20T01:34:13.182Z,94.40
2019-05-20T01:36:43.184Z,94.40
2019-05-20T01:39:13.295Z,94.40
2019-05-20T01:41:43.398Z,94.40
2019-05-20T01:44:13.424Z,94.50
2019-05-20T01:46:43.464Z,94.50
2019-05-20T01:49:13.487Z,94.40
2019-05-20T01:51:43.513Z,94.40
2019-05-20T01:54:13.589Z,94.30
2019-05-20T01:56:43.578Z,94.20
2019-05-20T01:59:13.641Z,94.10
2019-05-20T02:01:43.735Z,94.20
2019-05-20T02:04:13.774Z,94.10
2019-05-20T02:06:43.823Z,94.00
2019-05-20T02:09:13.856Z,94.20
2019-05-20T02:11:43.886Z,94.10
2019-05-20T02:14:19.105Z,94.00
2019-05-20T02:16:49.208Z,94.00
2019-05-20T02:19:19.391Z,94.10
2019-05-20T02:21:49.447Z,94.10
2019-05-20T02:24:19.500Z,93.90
2019-05-20T02:26:49.523Z,94.00
2019-05-20T02:29:19.661Z,94.10
2019-05-20T02:31:49.700Z,94.20
2019-05-20T02:34:19.749Z,94.30
2019-05-20T02:36:51.464Z,94.40
2019-05-20T02:39:21.571Z,94.40
2019-05-20T02:41:51.641Z,94.50
2019-05-20T02:44:21.775Z,94.60
2019-05-20T02:46:51.749Z,94.70
2019-05-20T02:49:21.869Z,94.80
2019-05-20T02:51:51.950Z,94.80
2019-05-20T02:54:22.021Z,94.80
2019-05-20T02:56:52.456Z,94.90
2019-05-20T02:59:22.469Z,94.90
2019-05-20T03:01:53.134Z,95.10
2019-05-20T03:04:23.182Z,95.10
2019-05-20T03:06:53.429Z,95.30
2019-05-20T03:09:23.485Z,95.30
2019-05-20T03:11:53.663Z,95.20
2019-05-20T03:14:24.181Z,95.40
2019-05-20T03:16:54.286Z,95.30
2019-05-20T03:19:24.373Z,95.40
2019-05-20T03:21:55.239Z,95.40
2019-05-20T03:24:25.341Z,95.40
2019-05-20T03:26:55.571Z,95.50
2019-05-20T03:29:25.588Z,95.40
2019-05-20T03:31:55.798Z,95.40
2019-05-20T03:34:45.785Z,95.40
2019-05-20T03:36:57.709Z,95.20
2019-05-20T03:39:27.826Z,94.70
2019-05-20T03:42:00.290Z,94.30
2019-05-20T03:44:30.351Z,94.00
2019-05-20T03:47:00.438Z,93.90
2019-05-20T03:49:30.532Z,93.80
2019-05-20T03:52:00.700Z,93.90
2019-05-20T03:54:30.861Z,94.00
2019-05-20T03:57:01.039Z,93.50
2019-05-20T03:59:31.229Z,93.00
2019-05-20T04:02:01.950Z,92.80
2019-05-20T04:04:33.360Z,92.60
2019-05-20T04:07:03.462Z,92.50
2019-05-20T04:09:33.567Z,92.40
2019-05-20T04:12:04.074Z,92.30
2019-05-20T04:14:34.169Z,92.00
2019-05-20T04:17:04.239Z,92.10
2019-05-20T04:19:34.654Z,92.20
2019-05-20T04:22:05.121Z,92.30
2019-05-20T04:24:36.370Z,92.20
2019-05-20T04:27:06.750Z,92.20
2019-05-20T04:29:36.972Z,92.10
2019-05-20T04:32:07.276Z,92.10
2019-05-20T04:34:37.485Z,92.20
2019-05-20T04:37:07.620Z,92.30
2019-05-20T04:39:37.666Z,92.20
2019-05-20T04:42:07.721Z,92.40
2019-05-20T04:44:37.874Z,92.30
2019-05-20T04:47:07.881Z,92.00
2019-05-20T04:49:37.958Z,92.10
2019-05-20T04:52:07.987Z,92.10
2019-05-20T04:54:38.036Z,91.80
2019-05-20T04:57:08.208Z,91.50
2019-05-20T04:59:38.289Z,90.90
2019-05-20T05:02:08.357Z,90.80
2019-05-20T05:04:38.508Z,90.50
2019-05-20T05:07:08.526Z,90.30
2019-05-20T05:09:38.586Z,89.70
2019-05-20T05:12:08.802Z,90.00
2019-05-20T05:14:40.815Z,90.00
2019-05-20T05:17:10.600Z,89.50
2019-05-20T05:19:41.970Z,89.90
2019-05-20T05:22:12.059Z,89.10
2019-05-20T05:24:42.523Z,88.50
2019-05-20T05:27:12.682Z,88.00
2019-05-20T05:29:42.801Z,87.70
2019-05-20T05:32:12.923Z,87.10
2019-05-20T05:34:43.093Z,87.20
2019-05-20T05:37:13.286Z,86.90
2019-05-20T05:39:44.762Z,86.70
2019-05-20T05:42:14.825Z,87.40
2019-05-20T05:44:44.865Z,86.50
2019-05-20T05:47:14.912Z,85.70
2019-05-20T05:49:45.003Z,85.20
2019-05-20T05:52:15.464Z,84.70
2019-05-20T05:54:45.615Z,83.80
2019-05-20T05:57:15.798Z,82.70
2019-05-20T05:59:45.994Z,82.00
2019-05-20T06:02:16.051Z,81.40
2019-05-20T06:04:46.321Z,80.30
2019-05-20T06:07:16.346Z,78.70
2019-05-20T06:09:46.752Z,77.80
2019-05-20T06:12:17.111Z,77.20
2019-05-20T06:14:47.230Z,76.00
2019-05-20T06:17:17.425Z,76.10
2019-05-20T06:19:47.565Z,75.60
2019-05-20T06:22:17.691Z,75.50
2019-05-20T06:24:47.859Z,75.40
2019-05-20T06:27:17.901Z,75.60
2019-05-20T06:29:48.058Z,76.00
2019-05-20T06:32:18.249Z,76.80
2019-05-20T06:34:48.329Z,77.70
2019-05-20T06:37:20.279Z,78.30
2019-05-20T06:39:51.303Z,78.70
2019-05-20T06:42:21.661Z,79.10
2019-05-20T06:44:56.525Z,79.80
2019-05-20T06:47:25.089Z,81.40
2019-05-20T06:49:55.273Z,81.80
2019-05-20T06:52:35.372Z,82.60
2019-05-20T06:54:57.317Z,83.80
2019-05-20T06:57:27.388Z,82.70
2019-05-20T06:59:57.471Z,82.30
2019-05-20T07:02:27.581Z,82.50
2019-05-20T07:04:57.673Z,81.00
2019-05-20T07:07:27.803Z,80.50
2019-05-20T07:09:58.043Z,80.60
2019-05-20T07:12:40.681Z,80.20
2019-05-20T07:14:59.863Z,79.30
2019-05-20T07:17:31.746Z,78.80
2019-05-20T07:20:01.989Z,79.60
2019-05-20T07:22:32.236Z,78.60
2019-05-20T07:25:02.655Z,77.80
2019-05-20T07:27:32.822Z,74.40
2019-05-20T07:30:03.373Z,72.90
2019-05-20T07:32:33.867Z,72.10
2019-05-20T07:35:04.149Z,72.60
2019-05-20T07:37:35.322Z,73.40
2019-05-20T07:40:06.103Z,72.30
2019-05-20T07:42:36.483Z,71.70
2019-05-20T07:45:06.699Z,72.50
2019-05-20T07:47:37.132Z,72.90
2019-05-20T07:50:09.277Z,72.50
2019-05-20T07:52:39.674Z,72.00
2019-05-20T07:55:10.041Z,72.90
2019-05-20T07:57:43.178Z,72.50
2019-05-20T08:00:13.519Z,73.40
2019-05-20T08:02:44.084Z,74.40
2019-05-20T08:05:14.311Z,74.90
2019-05-20T08:07:52.027Z,74.10
2019-05-20T08:10:16.862Z,72.70
2019-05-20T08:12:47.612Z,70.00
2019-05-20T08:15:18.137Z,67.60
2019-05-20T08:17:48.638Z,64.00
2019-05-20T08:20:19.467Z,60.10
2019-05-20T08:22:49.807Z,56.00
2019-05-20T08:25:20.304Z,55.00
2019-05-20T08:27:51.437Z,54.10
2019-05-20T08:30:30.942Z,52.50
2019-05-20T08:33:01.589Z,50.10
2019-05-20T08:35:31.760Z,48.40
2019-05-20T08:38:02.042Z,47.40
2019-05-20T08:40:33.771Z,46.10
2019-05-20T08:43:04.034Z,45.70
2019-05-20T08:45:34.254Z,45.20
2019-05-20T08:48:04.592Z,42.80
2019-05-20T08:50:34.895Z,41.00
2019-05-20T08:53:05.363Z,39.60
2019-05-20T08:55:35.732Z,38.20
2019-05-20T08:58:08.729Z,37.20
2019-05-20T09:00:37.842Z,37.30
2019-05-20T09:03:08.944Z,38.60
2019-05-20T09:05:39.535Z,41.10
2019-05-20T09:08:10.793Z,41.50
2019-05-20T09:10:41.016Z,40.10
2019-05-20T09:13:11.285Z,39.60
2019-05-20T09:15:45.246Z,40.40
2019-05-20T09:18:14.825Z,42.90
2019-05-20T09:20:45.028Z,44.40
2019-05-20T09:23:16.934Z,45.30
2019-05-20T09:25:47.066Z,45.90
2019-05-20T09:28:17.354Z,45.30
2019-05-20T09:30:48.435Z,46.50
2019-05-20T09:33:23.252Z,47.00
2019-05-20T09:35:53.496Z,47.80
2019-05-20T09:38:26.128Z,48.50
2019-05-20T09:40:58.054Z,49.60
2019-05-20T09:43:28.576Z,49.40
2019-05-20T09:46:07.523Z,51.40
2019-05-20T09:48:31.076Z,52.00
2019-05-20T09:51:01.592Z,51.10
2019-05-20T09:53:33.145Z,49.40
2019-05-20T09:56:03.653Z,49.90
2019-05-20T09:58:33.906Z,48.90
2019-05-20T10:01:04.506Z,49.30
2019-05-20T10:03:42.238Z,50.30
2019-05-20T10:06:12.441Z,50.20
2019-05-20T10:08:45.096Z,52.00
2019-05-20T10:11:15.090Z,53.20
2019-05-20T10:13:45.329Z,54.30
2019-05-20T10:16:19.807Z,55.70
2019-05-20T10:18:50.119Z,57.10
2019-05-20T10:21:24.101Z,58.30
2019-05-20T10:24:06.269Z,58.70
2019-05-20T10:26:37.259Z,59.10
2019-05-20T10:29:07.554Z,59.20
2019-05-20T10:31:37.657Z,61.70
2019-05-20T10:34:08.183Z,65.40
2019-05-20T10:36:39.423Z,68.90
2019-05-20T10:39:09.765Z,70.70
2019-05-20T10:41:41.703Z,71.90
2019-05-20T10:44:11.862Z,74.80
2019-05-20T10:46:42.029Z,75.30
2019-05-20T10:49:12.209Z,76.00
2019-05-20T10:51:42.318Z,71.10
2019-05-20T10:54:12.546Z,70.30
2019-05-20T10:56:43.059Z,69.00
2019-05-20T10:59:13.285Z,70.60
2019-05-20T11:01:49.333Z,71.10
2019-05-20T11:04:19.648Z,68.90
2019-05-20T11:06:49.887Z,68.10
2019-05-20T11:09:20.523Z,71.00
2019-05-20T11:11:50.706Z,70.00
2019-05-20T11:14:21.061Z,70.80
2019-05-20T11:16:51.285Z,71.80
2019-05-20T11:19:21.513Z,70.90
2019-05-20T11:21:51.874Z,72.10
2019-05-20T11:24:22.590Z,71.20
2019-05-20T11:26:54.395Z,69.00
2019-05-20T11:29:24.556Z,69.10
2019-05-20T11:31:55.124Z,68.10
2019-05-20T11:34:26.488Z,68.00
2019-05-20T11:36:56.795Z,67.80
2019-05-20T11:39:33.456Z,68.40
2019-05-20T11:41:59.300Z,69.00
2019-05-20T11:44:29.552Z,70.00
2019-05-20T11:46:59.796Z,70.00
2019-05-20T11:49:31.852Z,70.90
2019-05-20T11:52:01.981Z,72.00
2019-05-20T11:54:32.606Z,72.60
2019-05-20T11:57:02.736Z,71.70
2019-05-20T11:59:35.713Z,71.00
2019-05-20T12:02:06.058Z,72.00
2019-05-20T12:04:36.279Z,72.50
2019-05-20T12:07:08.599Z,72.40
2019-05-20T12:09:49.277Z,71.80
2019-05-20T12:12:10.322Z,72.40
2019-05-20T12:14:40.609Z,72.80
2019-05-20T12:17:36.206Z,73.00
2019-05-20T12:20:12.405Z,72.90
2019-05-20T12:22:42.595Z,71.90
2019-05-20T12:25:12.702Z,70.40
2019-05-20T12:27:43.691Z,70.00
2019-05-20T12:30:14.257Z,69.80
2019-05-20T12:32:44.565Z,70.00
2019-05-20T12:35:15.012Z,70.30
2019-05-20T12:37:45.875Z,70.90
2019-05-20T12:40:16.642Z,70.20
2019-05-20T12:42:46.948Z,70.00
2019-05-20T12:45:17.490Z,69.90
2019-05-20T12:47:47.646Z,69.10
2019-05-20T12:50:18.178Z,69.10
2019-05-20T12:52:48.383Z,69.40
2019-05-20T12:55:18.856Z,69.80
2019-05-20T12:57:49.089Z,70.10
2019-05-20T13:00:19.976Z,70.90
2019-05-20T13:02:50.153Z,72.30
2019-05-20T13:05:20.195Z,72.70
2019-05-20T13:07:50.519Z,74.10
2019-05-20T13:10:31.687Z,74.90
2019-05-20T13:12:52.491Z,75.50
2019-05-20T13:15:22.674Z,76.10
2019-05-20T13:17:52.892Z,76.30
2019-05-20T13:20:24.042Z,76.00
2019-05-20T13:22:54.483Z,75.30
2019-05-20T13:25:24.693Z,74.40
2019-05-20T13:27:54.829Z,74.90
2019-05-20T13:30:25.265Z,74.90
2019-05-20T13:32:55.836Z,75.20
2019-05-20T13:35:26.578Z,75.00
2019-05-20T13:37:57.018Z,75.20
2019-05-20T13:40:42.965Z,75.60
2019-05-20T13:42:58.823Z,76.80
2019-05-20T13:45:28.887Z,78.80
2019-05-20T13:47:59.008Z,79.50
2019-05-20T13:50:31.902Z,80.90
2019-05-20T13:53:02.037Z,82.30
2019-05-20T13:55:32.298Z,82.20
2019-05-20T13:58:02.486Z,83.60
2019-05-20T14:00:32.675Z,84.60
2019-05-20T14:03:02.732Z,84.50
2019-05-20T14:05:33.192Z,85.40
2019-05-20T14:08:03.252Z,86.30
2019-05-20T14:10:33.641Z,86.10
2019-05-20T14:13:03.735Z,86.40
2019-05-20T14:16:03.620Z,86.20
2019-05-20T14:18:35.149Z,86.90
2019-05-20T14:21:05.833Z,87.40
2019-05-20T14:23:35.954Z,87.20
2019-05-20T14:26:06.105Z,86.20
2019-05-20T14:28:36.306Z,85.60
2019-05-20T14:31:07.026Z,86.10
2019-05-20T14:33:39.049Z,85.90
2019-05-20T14:36:09.130Z,86.30
2019-05-20T14:38:39.223Z,85.60
2019-05-20T14:41:21.098Z,85.80
2019-05-20T14:43:41.012Z,86.00
2019-05-20T14:46:11.165Z,85.60
2019-05-20T14:48:41.973Z,85.40
2019-05-20T14:51:12.405Z,84.60
2019-05-20T14:53:43.593Z,84.80
2019-05-20T14:56:15.099Z,84.50
2019-05-20T14:58:47.218Z,84.60
2019-05-20T15:01:17.275Z,85.20
2019-05-20T15:03:47.466Z,86.00
2019-05-20T15:06:17.653Z,86.10
2019-05-20T15:08:47.830Z,86.70
2019-05-20T15:11:18.297Z,87.10
2019-05-20T15:13:48.560Z,87.50
2019-05-20T15:16:18.558Z,87.60
2019-05-20T15:18:51.905Z,87.40
2019-05-20T15:21:22.350Z,87.30
2019-05-20T15:23:52.794Z,87.20
2019-05-20T15:26:22.810Z,87.10
2019-05-20T15:28:53.329Z,87.80
2019-05-20T15:31:23.381Z,87.60
2019-05-20T15:34:01.536Z,87.70
2019-05-20T15:36:32.024Z,87.90
2019-05-20T15:39:02.158Z,87.70
2019-05-20T15:41:33.982Z,87.90
2019-05-20T15:44:04.311Z,87.60
2019-05-20T15:46:35.669Z,87.80
2019-05-20T15:49:05.899Z,87.30
2019-05-20T15:51:36.956Z,87.40
2019-05-20T15:54:07.199Z,87.70
2019-05-20T15:56:37.283Z,87.70
2019-05-20T15:59:07.864Z,87.30
2019-05-20T16:01:39.142Z,88.10
2019-05-20T16:04:09.207Z,88.00
2019-05-20T16:06:39.634Z,88.00
2019-05-20T16:09:10.396Z,87.50
2019-05-20T16:11:40.815Z,87.40
2019-05-20T16:14:11.458Z,87.80
2019-05-20T16:16:42.907Z,87.70
2019-05-20T16:19:13.131Z,88.00
2019-05-20T16:21:47.578Z,88.40
2019-05-20T16:24:15.355Z,88.40
2019-05-20T16:26:45.458Z,88.30
2019-05-20T16:29:15.702Z,88.30
2019-05-20T16:31:45.873Z,88.70
2019-05-20T16:34:16.065Z,88.80
2019-05-20T16:36:46.118Z,88.80
2019-05-20T16:39:16.713Z,88.50
2019-05-20T16:41:51.961Z,88.30
2019-05-20T16:44:23.953Z,88.90
2019-05-20T16:46:55.876Z,88.70
2019-05-20T16:49:27.334Z,88.30
2019-05-20T16:51:58.536Z,88.00
2019-05-20T16:54:28.775Z,88.50
2019-05-20T16:56:58.983Z,88.60
2019-05-20T16:59:29.132Z,88.80
2019-05-20T17:02:00.394Z,90.00
2019-05-20T17:04:30.434Z,89.20
2019-05-20T17:07:00.557Z,89.30
2019-05-20T17:09:31.194Z,88.90
2019-05-20T17:12:01.298Z,89.00
2019-05-20T17:14:31.374Z,88.50
2019-05-20T17:17:01.606Z,88.80
2019-05-20T17:19:31.744Z,88.50
2019-05-20T17:22:01.811Z,88.80
2019-05-20T17:24:33.130Z,88.90
2019-05-20T17:27:03.237Z,89.00
2019-05-20T17:29:34.274Z,89.30
2019-05-20T17:32:04.380Z,88.40
2019-05-20T17:34:34.494Z,87.30
2019-05-20T17:37:04.813Z,87.00
2019-05-20T17:39:34.866Z,86.70
2019-05-20T17:42:05.054Z,87.30
2019-05-20T17:44:35.126Z,86.90
2019-05-20T17:47:05.589Z,86.80
2019-05-20T17:49:35.743Z,86.20
2019-05-20T17:52:05.878Z,86.40
2019-05-20T17:54:36.250Z,86.50
2019-05-20T17:57:06.546Z,87.30
2019-05-20T17:59:37.085Z,87.20
2019-05-20T18:02:08.788Z,87.20
2019-05-20T18:04:38.897Z,87.20
2019-05-20T18:07:09.065Z,87.60
2019-05-20T18:09:42.333Z,88.10
2019-05-20T18:12:12.413Z,87.90
2019-05-20T18:14:44.099Z,88.00
2019-05-20T18:17:14.139Z,88.30
2019-05-20T18:19:44.153Z,88.80
2019-05-20T18:22:14.359Z,88.80
2019-05-20T18:24:44.420Z,88.90
2019-05-20T18:27:14.760Z,89.00
2019-05-20T18:29:44.921Z,88.80
2019-05-20T18:32:15.688Z,89.10
2019-05-20T18:34:45.770Z,89.20
2019-05-20T18:37:15.884Z,89.40
2019-05-20T18:39:46.000Z,89.70
2019-05-20T18:42:16.163Z,89.50
2019-05-20T18:44:47.432Z,90.00
2019-05-20T18:47:17.956Z,90.10
2019-05-20T18:49:49.219Z,90.60
2019-05-20T18:52:19.454Z,90.80
2019-05-20T18:54:49.700Z,90.80
2019-05-20T18:57:20.565Z,91.00
2019-05-20T18:59:50.666Z,91.20
2019-05-20T19:02:22.241Z,91.20
2019-05-20T19:04:55.593Z,91.40
2019-05-20T19:07:25.850Z,91.50
2019-05-20T19:09:55.858Z,92.00
2019-05-20T19:12:25.937Z,91.80
2019-05-20T19:14:56.361Z,91.70
2019-05-20T19:17:26.392Z,91.70
2019-05-20T19:19:56.498Z,91.60
2019-05-20T19:22:26.580Z,91.60
2019-05-20T19:24:56.637Z,91.60
2019-05-20T19:27:26.691Z,91.60
2019-05-20T19:29:56.808Z,91.90
2019-05-20T19:32:27.161Z,91.90
2019-05-20T19:34:57.297Z,92.00
2019-05-20T19:37:27.992Z,92.00
2019-05-20T19:39:58.222Z,92.00
2019-05-20T19:42:28.704Z,92.30
2019-05-20T19:44:58.744Z,92.10
2019-05-20T19:47:28.807Z,92.50
2019-05-20T19:49:59.039Z,92.80
2019-05-20T19:52:29.581Z,92.60
2019-05-20T19:55:00.157Z,92.60
2019-05-20T19:57:33.282Z,92.60
2019-05-20T20:00:03.550Z,92.50
2019-05-20T20:02:33.946Z,92.90
2019-05-20T20:05:04.684Z,92.60
2019-05-20T20:07:34.753Z,92.50
2019-05-20T20:10:05.493Z,92.50
2019-05-20T20:12:38.716Z,92.50
2019-05-20T20:15:09.732Z,92.40
2019-05-20T20:17:39.937Z,92.40
2019-05-20T20:20:10.223Z,92.40
2019-05-20T20:22:40.726Z,92.40
2019-05-20T20:25:10.991Z,92.20
2019-05-20T20:27:41.169Z,92.40
2019-05-20T20:30:11.584Z,92.70
2019-05-20T20:32:41.954Z,92.70
2019-05-20T20:35:13.109Z,92.70
2019-05-20T20:37:43.173Z,93.30
2019-05-20T20:40:13.441Z,93.00
2019-05-20T20:42:43.787Z,93.30
2019-05-20T20:45:14.631Z,93.20
2019-05-20T20:47:45.041Z,93.40
2019-05-20T20:50:15.326Z,93.40
2019-05-20T20:52:45.409Z,93.30
2019-05-20T20:55:15.454Z,93.50
2019-05-20T20:57:45.690Z,93.90
2019-05-20T21:00:16.517Z,93.60
2019-05-20T21:02:53.361Z,93.50
2019-05-20T21:05:19.544Z,93.30
2019-05-20T21:07:51.781Z,93.50
2019-05-20T21:10:21.327Z,93.40
2019-05-20T21:12:51.338Z,93.50
2019-05-20T21:15:21.484Z,93.70
2019-05-20T21:17:51.644Z,93.70
2019-05-20T21:20:22.020Z,93.80
2019-05-20T21:22:52.270Z,93.60
2019-05-20T21:25:22.304Z,93.40
2019-05-20T21:27:52.855Z,93.80
2019-05-20T21:30:22.915Z,93.30
2019-05-20T21:33:08.265Z,93.20
2019-05-20T21:35:25.277Z,93.30
2019-05-20T21:37:55.665Z,93.20
2019-05-20T21:40:27.666Z,93.40
2019-05-20T21:42:57.726Z,93.40
2019-05-20T21:45:27.830Z,93.90
2019-05-20T21:47:57.850Z,93.90
2019-05-20T21:50:28.060Z,93.70
2019-05-20T21:52:58.961Z,93.60
2019-05-20T21:55:29.032Z,93.70
2019-05-20T21:57:59.153Z,93.70
2019-05-20T22:00:42.579Z,93.80
2019-05-20T22:03:23.990Z,93.70
2019-05-20T22:05:44.774Z,93.90
2019-05-20T22:08:14.800Z,93.80
2019-05-20T22:10:44.830Z,93.60
2019-05-20T22:13:15.234Z,93.40
2019-05-20T22:15:45.581Z,93.40
2019-05-20T22:18:15.870Z,93.30
2019-05-20T22:20:46.233Z,93.30
2019-05-20T22:23:50.794Z,93.50
2019-05-20T22:26:20.819Z,93.30
2019-05-20T22:28:52.107Z,93.50
2019-05-20T22:31:22.629Z,93.50
2019-05-20T22:33:52.618Z,93.50
2019-05-20T22:36:22.657Z,93.80
2019-05-20T22:38:52.898Z,93.80
2019-05-20T22:41:23.854Z,93.80
2019-05-20T22:43:54.046Z,94.10
2019-05-20T22:46:24.851Z,94.30
2019-05-20T22:48:54.986Z,94.20
2019-05-20T22:51:25.001Z,94.30
2019-05-20T22:53:55.025Z,94.60
2019-05-20T22:56:25.065Z,94.30
2019-05-20T22:58:55.276Z,94.30
2019-05-20T23:01:25.233Z,94.00
2019-05-20T23:03:56.584Z,94.40
2019-05-20T23:06:26.884Z,94.50
2019-05-20T23:08:56.892Z,94.50
2019-05-20T23:11:26.896Z,94.70
2019-05-20T23:13:57.784Z,94.80
2019-05-20T23:16:27.837Z,94.90
2019-05-20T23:18:58.536Z,95.00
2019-05-20T23:21:28.558Z,95.20
2019-05-20T23:23:58.629Z,95.00
2019-05-20T23:26:28.728Z,95.00
2019-05-20T23:28:58.837Z,95.30
2019-05-20T23:31:28.876Z,95.30
2019-05-20T23:34:11.760Z,95.40
2019-05-20T23:36:31.277Z,95.40
2019-05-20T23:39:01.666Z,95.50
2019-05-20T23:41:33.100Z,95.40
2019-05-20T23:44:04.078Z,95.70
2019-05-20T23:46:34.063Z,95.60
2019-05-20T23:49:04.224Z,95.80
2019-05-20T23:51:34.220Z,95.90
2019-05-20T23:54:04.250Z,96.00
2019-05-20T23:56:34.529Z,96.00
2019-05-20T23:59:04.549Z,96.10
